Tallahassee Regional Airport
KTLH : rendu visible

Aérodrome :











RETROUVEZ-NOUS SUR...

 
LOGIN :

S'inscrire | Disclaimer

   EN    FR    IT 

 









Légende :    VFR   VFR Marginal   IFR   IFR Intensif   IFR Très Intensif
Visi : 
Plafond : 
>= 8 km
>= 3000ft
5 à 8 km
1000 à 3000 ft
1500m à 5 km
500 à 1000 ft
800 à 1500m
200 à 500 ft
< 800m
< 200 ft
Symboles :   Orages  Brouillard  Fortes neiges  Fortes précipitations  Vent > 20 kt






- Altitude de l'aérodrome : 81 ft
- Code IATA : TLH


KTLH - Tallahassee Regional

DERNIER METAR :
  • 072353Z 15006KT 10SM FEW045 SCT250 28/24 A3007 RMK AO2 LTG DSNT NW SLP182 CB DSNT S T02830239 10311 20272 50009

METARs EXPIRÉS :
  • 072253Z 15008KT 10SM FEW045 BKN250 30/25 A3008 RMK AO2 LTG DSNT W TSB09E52 SLP183 CB DSNT W MOV N T03000250
  • 072215Z 16009KT 10SM TS FEW045CB BKN250 30/25 A3007 RMK AO2 LTG DSNT W AND NW TSB09 OCNL LTGIC NW TS NW MOV N T03000250
  • 072153Z 15010KT 10SM SCT045 BKN250 30/25 A3006 RMK AO2 LTG DSNT W SLP176 CB DSNT W MOV N T03000250

TAF KTLH
Valide du 08 à 00h jusqu'au 09 à 00h UTC


072320Z 0800/0824 24006KT P6SM VCTS SCT045CB
TEMPO 0800/0801 VRB15G25KT 4SM TSRA SCT025CB BKN045
FM080100 21006KT P6SM SCT060
FM081500 26006KT P6SM SCT250
PROB30 0820/0824 4SM TSRA SCT025CB BKN045
FIR KZJX / Amérique du Nord



MET'MAP, la Météo Aéronautique d'un coup d'oeil ! - Copyright ORBIFLY Décembre 2007 - Disclaimer

ORBIFLY MET'MAP TEAM :

Programmation & Développement : Alexandra Zaïnal
Sur une idée originale de : Baudouin d'Aumeries
Assistance à la programmation : Marc-Olivier Méhu
Soutien technique & logistique : Manuel Goepfert

Contact : metmap@orbifly.com




SOURCES & CREDITS :

   NOAA       Earth
Advisory